createdAt,value
2017-10-19T00:01:03.769Z,10.89
2017-10-19T00:06:03.615Z,10.57
2017-10-19T00:11:03.721Z,10.79
2017-10-19T00:16:03.522Z,10.69
2017-10-19T00:21:03.793Z,10.34
2017-10-19T00:26:03.675Z,10.60
2017-10-19T00:31:03.151Z,10.79
2017-10-19T00:36:03.909Z,10.52
2017-10-19T00:41:03.708Z,10.67
2017-10-19T00:46:03.363Z,10.20
2017-10-19T00:51:03.165Z,10.50
2017-10-19T00:56:03.937Z,10.52
2017-10-19T01:01:03.697Z,10.67
2017-10-19T01:06:03.483Z,10.41
2017-10-19T01:11:03.682Z,10.15
2017-10-19T01:16:03.420Z,10.35
2017-10-19T01:21:03.232Z,10.24
2017-10-19T01:26:03.065Z,10.10
2017-10-19T01:31:03.834Z,10.08
2017-10-19T01:36:03.602Z,10.28
2017-10-19T01:41:03.812Z,10.40
2017-10-19T01:46:03.562Z,10.67
2017-10-19T01:51:03.353Z,10.39
2017-10-19T01:56:03.094Z,10.39
2017-10-19T02:01:03.922Z,10.39
2017-10-19T02:06:03.702Z,10.06
2017-10-19T02:11:03.906Z,10.10
2017-10-19T02:16:03.708Z,10.33
2017-10-19T02:21:03.604Z,10.43
2017-10-19T02:26:03.280Z,10.55
2017-10-19T02:31:03.045Z,10.47
2017-10-19T02:36:03.817Z,10.04
2017-10-19T02:41:03.034Z,10.23
2017-10-19T02:46:03.748Z,10.37
2017-10-19T02:51:03.515Z,10.21
2017-10-19T02:56:03.278Z,10.53
2017-10-19T03:01:03.049Z,10.80
2017-10-19T03:06:03.745Z,10.62
2017-10-19T03:11:03.961Z,10.28
2017-10-19T03:16:03.783Z,10.28
2017-10-19T03:21:03.562Z,10.09
2017-10-19T03:26:03.339Z,10.17
2017-10-19T03:31:03.091Z,10.45
2017-10-19T03:36:03.881Z,10.50
2017-10-19T03:41:03.053Z,10.88
2017-10-19T03:46:03.821Z,10.70
2017-10-19T03:51:03.589Z,10.75
2017-10-19T03:56:03.348Z,10.45
2017-10-19T04:01:03.152Z,10.76
2017-10-19T04:06:03.855Z,10.36
2017-10-19T04:11:03.092Z,10.29
2017-10-19T04:16:03.854Z,10.43
2017-10-19T04:21:03.698Z,10.30
2017-10-19T04:26:03.198Z,10.50
2017-10-19T04:31:03.967Z,10.63
2017-10-19T04:36:03.744Z,10.73
2017-10-19T04:41:03.927Z,11.01
2017-10-19T04:46:03.799Z,10.81
2017-10-19T04:51:03.599Z,10.71
2017-10-19T04:56:03.394Z,10.56
2017-10-19T05:01:03.130Z,10.64
2017-10-19T05:06:03.935Z,10.91
2017-10-19T05:11:03.047Z,10.76
2017-10-19T05:16:03.863Z,10.89
2017-10-19T05:21:03.674Z,10.63
2017-10-19T05:26:03.509Z,10.45
2017-10-19T05:31:03.228Z,10.39
2017-10-19T05:36:03.198Z,10.26
2017-10-19T05:41:03.347Z,10.47
2017-10-19T05:46:03.149Z,10.68
2017-10-19T05:51:03.902Z,10.30
2017-10-19T05:56:03.683Z,10.13
2017-10-19T06:01:03.473Z,10.13
2017-10-19T06:06:03.267Z,10.39
2017-10-19T06:11:03.494Z,10.52
2017-10-19T06:16:03.211Z,10.40
2017-10-19T06:21:03.070Z,10.05
2017-10-19T06:26:03.868Z,9.93
2017-10-19T06:31:03.608Z,9.51
2017-10-19T06:36:03.412Z,9.67
2017-10-19T06:41:03.560Z,10.13
2017-10-19T06:46:03.344Z,10.21
2017-10-19T06:51:03.158Z,10.62
2017-10-19T06:56:03.952Z,10.33
2017-10-19T07:01:03.737Z,10.23
2017-10-19T07:06:03.546Z,10.20
2017-10-19T07:11:03.658Z,10.27
2017-10-19T07:16:03.461Z,10.24
2017-10-19T07:21:03.345Z,10.49
2017-10-19T07:26:03.181Z,10.54
2017-10-19T07:31:03.950Z,10.65
2017-10-19T07:36:03.759Z,10.87
2017-10-19T07:41:02.996Z,10.95
2017-10-19T07:46:03.810Z,10.98
2017-10-19T07:51:03.596Z,11.25
2017-10-19T07:56:03.340Z,11.53
2017-10-19T08:01:03.197Z,11.47
2017-10-19T08:06:03.043Z,11.68
2017-10-19T08:11:03.193Z,11.63
2017-10-19T08:16:03.960Z,11.86
2017-10-19T08:21:03.837Z,12.06
2017-10-19T08:26:03.606Z,12.03
2017-10-19T08:31:03.372Z,12.43
2017-10-19T08:36:03.146Z,12.51
2017-10-19T08:41:03.332Z,12.53
2017-10-19T08:46:03.075Z,12.89
2017-10-19T08:51:03.859Z,13.13
2017-10-19T08:56:03.644Z,13.41
2017-10-19T09:01:03.483Z,13.61
2017-10-19T09:06:03.242Z,13.89
2017-10-19T09:11:03.404Z,14.01
2017-10-19T09:16:03.158Z,14.26
2017-10-19T09:21:03.000Z,14.46
2017-10-19T09:26:03.807Z,14.69
2017-10-19T09:31:03.568Z,14.88
2017-10-19T09:36:03.299Z,15.10
2017-10-19T09:41:03.465Z,15.20
2017-10-19T09:46:03.281Z,15.23
2017-10-19T09:51:03.102Z,15.43
2017-10-19T09:56:03.899Z,15.66
2017-10-19T10:01:03.696Z,15.74
2017-10-19T10:06:03.499Z,16.00
2017-10-19T10:11:03.640Z,16.07
2017-10-19T10:16:03.432Z,16.17
2017-10-19T10:21:03.296Z,16.37
2017-10-19T10:26:03.247Z,16.44
2017-10-19T10:31:03.053Z,16.49
2017-10-19T10:36:03.822Z,16.79
2017-10-19T10:41:03.977Z,16.48
2017-10-19T10:46:03.691Z,16.65
2017-10-19T10:51:03.461Z,16.47
2017-10-19T10:56:03.303Z,16.59
2017-10-19T11:01:03.062Z,16.33
2017-10-19T11:06:03.831Z,16.39
2017-10-19T11:11:03.048Z,16.83
2017-10-19T11:16:03.911Z,16.84
2017-10-19T11:21:03.755Z,17.07
2017-10-19T11:26:03.516Z,16.74
2017-10-19T11:31:03.308Z,16.64
2017-10-19T11:36:03.223Z,16.52
2017-10-19T11:41:03.433Z,16.44
2017-10-19T11:46:03.183Z,16.46
2017-10-19T11:51:03.080Z,16.56
2017-10-19T11:56:03.820Z,16.70
2017-10-19T12:01:03.589Z,16.71
2017-10-19T12:06:03.435Z,16.82
2017-10-19T12:11:03.741Z,16.56
2017-10-19T12:16:03.752Z,16.48
2017-10-19T12:21:03.652Z,16.72
2017-10-19T12:26:03.492Z,16.93
2017-10-19T12:31:04.048Z,17.18
2017-10-19T12:36:03.439Z,16.85
2017-10-19T12:41:03.838Z,17.10
2017-10-19T12:46:03.770Z,17.09
2017-10-19T12:51:03.580Z,17.03
2017-10-19T12:56:03.354Z,17.05
2017-10-19T13:01:03.701Z,17.10
2017-10-19T13:06:03.140Z,17.39
2017-10-19T13:11:03.597Z,17.17
2017-10-19T13:16:03.790Z,17.28
2017-10-19T13:21:03.556Z,17.40
2017-10-19T13:26:04.187Z,17.38
2017-10-19T13:31:03.686Z,17.17
2017-10-19T13:36:03.502Z,17.29
2017-10-19T13:41:03.686Z,17.23
2017-10-19T13:46:03.426Z,17.20
2017-10-19T13:51:03.524Z,17.14
2017-10-19T13:56:03.093Z,17.24
2017-10-19T14:01:03.866Z,17.37
2017-10-19T14:06:03.634Z,17.41
2017-10-19T14:11:03.809Z,17.42
2017-10-19T14:16:03.669Z,17.57
2017-10-19T14:21:03.856Z,17.59
2017-10-19T14:26:04.069Z,17.58
2017-10-19T14:31:03.582Z,17.41
2017-10-19T14:36:03.520Z,17.51
2017-10-19T14:41:03.755Z,17.33
2017-10-19T14:46:03.756Z,17.53
2017-10-19T14:51:03.684Z,17.67
2017-10-19T14:56:03.438Z,17.33
2017-10-19T15:01:03.226Z,17.46
2017-10-19T15:06:03.981Z,17.36
2017-10-19T15:11:03.170Z,17.57
2017-10-19T15:16:04.436Z,17.46
2017-10-19T15:21:03.808Z,17.38
2017-10-19T15:26:03.516Z,17.34
2017-10-19T15:31:03.373Z,17.36
2017-10-19T15:36:03.159Z,17.30
2017-10-19T15:41:03.666Z,17.34
2017-10-19T15:46:03.959Z,17.26
2017-10-19T15:51:03.428Z,17.24
2017-10-19T15:56:03.323Z,17.17
2017-10-19T16:01:03.065Z,17.15
2017-10-19T16:06:03.870Z,17.05
2017-10-19T16:11:03.132Z,17.02
2017-10-19T16:16:03.862Z,16.96
2017-10-19T16:21:03.709Z,16.90
2017-10-19T16:26:03.543Z,16.72
2017-10-19T16:31:03.328Z,16.76
2017-10-19T16:36:03.126Z,16.57
2017-10-19T16:41:03.614Z,16.54
2017-10-19T16:46:03.403Z,16.73
2017-10-19T16:51:03.158Z,16.47
2017-10-19T16:56:03.935Z,16.47
2017-10-19T17:01:03.741Z,16.44
2017-10-19T17:06:03.538Z,16.40
2017-10-19T17:11:03.752Z,16.34
2017-10-19T17:16:03.550Z,16.24
2017-10-19T17:21:03.702Z,16.25
2017-10-19T17:26:03.908Z,16.30
2017-10-19T17:31:03.664Z,16.35
2017-10-19T17:36:03.433Z,16.13
2017-10-19T17:41:03.752Z,16.10
2017-10-19T17:46:03.467Z,16.10
2017-10-19T17:51:03.545Z,16.04
2017-10-19T17:56:03.272Z,16.06
2017-10-19T18:01:03.065Z,16.02
2017-10-19T18:06:03.890Z,16.16
2017-10-19T18:11:04.274Z,16.21
2017-10-19T18:16:04.189Z,16.06
2017-10-19T18:21:03.680Z,16.13
2017-10-19T18:26:03.644Z,16.13
2017-10-19T18:31:04.247Z,16.05
2017-10-19T18:36:03.934Z,16.11
2017-10-19T18:41:03.513Z,16.03
2017-10-19T18:46:03.490Z,16.16
2017-10-19T18:51:03.840Z,16.07
2017-10-19T18:56:03.670Z,16.09
2017-10-19T19:01:03.857Z,16.05
2017-10-19T19:06:03.846Z,16.03
2017-10-19T19:11:03.315Z,16.01
2017-10-19T19:16:03.522Z,15.91
2017-10-19T19:21:04.745Z,15.81
2017-10-19T19:26:03.832Z,15.75
2017-10-19T19:31:04.309Z,15.77
2017-10-19T19:36:03.867Z,15.76
2017-10-19T19:41:04.028Z,15.77
2017-10-19T19:46:04.367Z,15.62
2017-10-19T19:51:03.720Z,15.79
2017-10-19T19:56:03.930Z,15.68
2017-10-19T20:01:03.680Z,15.60
2017-10-19T20:06:03.575Z,15.60
2017-10-19T20:11:04.027Z,15.53
2017-10-19T20:16:04.016Z,15.56
2017-10-19T20:21:03.767Z,15.34
2017-10-19T20:26:03.827Z,15.36
2017-10-19T20:31:03.805Z,15.33
2017-10-19T20:36:04.127Z,15.49
2017-10-19T20:41:03.991Z,15.30
2017-10-19T20:46:03.886Z,15.35
2017-10-19T20:51:03.935Z,15.45
2017-10-19T20:56:03.701Z,15.31
2017-10-19T21:01:03.448Z,15.35
2017-10-19T21:06:03.464Z,15.34
2017-10-19T21:11:03.837Z,15.26
2017-10-19T21:16:03.861Z,15.17
2017-10-19T21:21:03.950Z,15.23
2017-10-19T21:26:04.043Z,14.99
2017-10-19T21:31:03.884Z,15.01
2017-10-19T21:36:03.905Z,15.02
2017-10-19T21:41:03.539Z,14.97
2017-10-19T21:46:03.057Z,15.00
2017-10-19T21:51:03.860Z,14.89
2017-10-19T21:56:03.761Z,14.87
2017-10-19T22:01:03.557Z,14.81
2017-10-19T22:06:03.320Z,14.73
2017-10-19T22:11:03.568Z,14.62
2017-10-19T22:16:03.334Z,14.61
2017-10-19T22:21:03.178Z,14.61
2017-10-19T22:26:03.941Z,14.54
2017-10-19T22:31:03.723Z,14.52
2017-10-19T22:36:03.508Z,14.55
2017-10-19T22:41:03.717Z,14.39
2017-10-19T22:46:03.489Z,14.50
2017-10-19T22:51:03.232Z,14.47
2017-10-19T22:56:03.002Z,14.22
2017-10-19T23:01:03.781Z,14.25
2017-10-19T23:06:03.575Z,14.15
2017-10-19T23:11:03.758Z,14.19
2017-10-19T23:16:03.534Z,14.10
2017-10-19T23:21:03.399Z,13.93
2017-10-19T23:26:03.175Z,13.97
2017-10-19T23:31:03.975Z,13.97
2017-10-19T23:36:03.709Z,13.91
2017-10-19T23:41:03.917Z,13.91
2017-10-19T23:46:03.712Z,13.83
2017-10-19T23:51:03.451Z,13.87
2017-10-19T23:56:03.257Z,13.85
